Terminal Aerodrome Forecast
Issued by NWS

Home | Current Version | Previous Version | Text Only | Print | Product List | Glossary On
Versions: 1 2 3 4 5 6 7 8 9 10 11 12 13 14 15 16 17 18 19
000
FTAK31 PAJN 061700
TAFAYA
TAF
PAYA 061728Z 0618/0718 VRB05KT P6SM BCFG BKN005
      TEMPO 0618/0621 SCT005 SCT150
     FM062100 27007KT P6SM SCT150
     FM070600 VRB03KT P6SM SCT005
     FM071000 00000KT 6SM BR BKN005
     FM071400 00000KT P6SM SCT006 BKN100
      AMD LTD TO CLD VIS AND WIND 0701/0710=

USA.gov is the U.S. government's official web portal to all federal, state and local government web resources and services.